createdAt,value
2018-04-17T00:01:33.833Z,13.20
2018-04-17T00:04:01.394Z,13.20
2018-04-17T00:06:28.882Z,13.20
2018-04-17T00:08:56.839Z,13.30
2018-04-17T00:11:24.367Z,13.30
2018-04-17T00:13:51.881Z,13.20
2018-04-17T00:16:20.751Z,13.10
2018-04-17T00:18:48.261Z,13.10
2018-04-17T00:21:15.841Z,13.00
2018-04-17T00:23:43.394Z,12.90
2018-04-17T00:26:11.564Z,12.80
2018-04-17T00:28:39.236Z,12.70
2018-04-17T00:31:07.543Z,12.70
2018-04-17T00:33:35.828Z,12.40
2018-04-17T00:36:03.598Z,12.40
2018-04-17T00:38:31.290Z,12.40
2018-04-17T00:40:58.893Z,12.40
2018-04-17T00:43:26.694Z,12.30
2018-04-17T00:45:55.046Z,12.30
2018-04-17T00:48:22.878Z,12.20
2018-04-17T00:50:50.387Z,12.20
2018-04-17T00:53:29.828Z,12.20
2018-04-17T00:55:57.358Z,12.20
2018-04-17T00:58:24.990Z,12.10
2018-04-17T01:00:52.505Z,12.00
2018-04-17T01:03:20.005Z,12.00
2018-04-17T01:05:48.221Z,11.90
2018-04-17T01:08:16.725Z,11.90
2018-04-17T01:10:44.215Z,11.90
2018-04-17T01:13:11.843Z,11.90
2018-04-17T01:15:40.326Z,11.80
2018-04-17T01:18:07.853Z,11.70
2018-04-17T01:20:35.419Z,11.70
2018-04-17T01:23:03.903Z,11.70
2018-04-17T01:25:31.607Z,11.60
2018-04-17T01:28:00.407Z,11.60
2018-04-17T01:30:28.010Z,11.60
2018-04-17T01:32:57.657Z,11.50
2018-04-17T01:35:25.935Z,11.40
2018-04-17T01:37:54.415Z,11.40
2018-04-17T01:40:22.173Z,11.30
2018-04-17T01:42:49.694Z,11.30
2018-04-17T01:45:17.214Z,11.20
2018-04-17T01:47:44.731Z,11.20
2018-04-17T01:50:12.270Z,11.10
2018-04-17T01:52:39.848Z,11.10
2018-04-17T01:55:07.480Z,11.10
2018-04-17T01:57:35.001Z,11.10
2018-04-17T02:00:03.283Z,11.10
2018-04-17T02:02:31.614Z,11.10
2018-04-17T02:04:59.113Z,11.00
2018-04-17T02:07:26.601Z,11.00
2018-04-17T02:09:54.200Z,11.10
2018-04-17T02:12:21.690Z,11.10
2018-04-17T02:14:49.971Z,11.00
2018-04-17T02:17:17.674Z,11.00
2018-04-17T02:19:45.262Z,11.00
2018-04-17T02:22:12.810Z,11.00
2018-04-17T02:24:40.469Z,10.90
2018-04-17T02:27:07.966Z,10.90
2018-04-17T02:29:36.391Z,10.80
2018-04-17T02:32:04.009Z,10.80
2018-04-17T02:34:31.815Z,10.70
2018-04-17T02:36:59.364Z,10.70
2018-04-17T02:39:27.759Z,10.60
2018-04-17T02:41:55.287Z,10.60
2018-04-17T02:44:23.549Z,10.60
2018-04-17T02:46:51.072Z,10.60
2018-04-17T02:49:19.221Z,10.60
2018-04-17T02:51:46.786Z,10.60
2018-04-17T02:54:14.368Z,10.60
2018-04-17T02:56:41.976Z,10.60
2018-04-17T02:59:10.285Z,10.60
2018-04-17T03:01:37.793Z,10.50
2018-04-17T03:04:05.339Z,10.60
2018-04-17T03:06:32.911Z,10.50
2018-04-17T03:09:00.551Z,10.50
2018-04-17T03:11:28.080Z,10.40
2018-04-17T03:13:55.597Z,10.40
2018-04-17T03:16:23.153Z,10.40
2018-04-17T03:18:50.729Z,10.40
2018-04-17T03:21:18.260Z,10.30
2018-04-17T03:23:45.784Z,10.30
2018-04-17T03:26:13.349Z,10.30
2018-04-17T03:28:40.875Z,10.30
2018-04-17T03:31:08.380Z,10.30
2018-04-17T03:33:35.921Z,10.30
2018-04-17T03:36:03.499Z,10.30
2018-04-17T03:38:31.007Z,10.30
2018-04-17T03:40:58.513Z,10.30
2018-04-17T03:43:26.033Z,10.20
2018-04-17T03:45:53.527Z,10.20
2018-04-17T03:48:21.041Z,10.10
2018-04-17T03:50:50.198Z,10.10
2018-04-17T03:53:17.724Z,10.10
2018-04-17T03:55:45.487Z,10.10
2018-04-17T03:58:12.986Z,10.10
2018-04-17T04:00:40.513Z,10.10
2018-04-17T04:03:08.043Z,10.10
2018-04-17T04:05:35.545Z,10.20
2018-04-17T04:08:03.087Z,10.10
2018-04-17T04:10:30.690Z,10.20
2018-04-17T04:12:58.229Z,10.20
2018-04-17T04:15:25.946Z,10.20
2018-04-17T04:18:14.971Z,10.30
2018-04-17T04:20:54.327Z,10.30
2018-04-17T04:23:33.665Z,10.30
2018-04-17T04:26:13.115Z,10.30
2018-04-17T04:28:41.451Z,10.40
2018-04-17T04:31:08.986Z,10.40
2018-04-17T04:33:37.465Z,10.50
2018-04-17T04:36:05.005Z,10.60
2018-04-17T04:38:32.518Z,10.70
2018-04-17T04:41:00.043Z,10.90
2018-04-17T04:43:27.564Z,11.00
2018-04-17T04:45:55.164Z,11.20
2018-04-17T04:48:22.666Z,11.30
2018-04-17T04:50:50.175Z,11.50
2018-04-17T04:53:18.008Z,11.90
2018-04-17T04:55:48.773Z,12.20
2018-04-17T04:58:16.378Z,12.30
2018-04-17T05:00:43.983Z,12.70
2018-04-17T05:03:11.972Z,13.40
2018-04-17T05:05:39.526Z,14.20
2018-04-17T05:08:07.044Z,14.90
2018-04-17T05:10:35.460Z,16.40
2018-04-17T05:13:02.972Z,16.40
2018-04-17T05:15:30.998Z,17.10
2018-04-17T05:17:58.533Z,17.80
2018-04-17T05:20:26.911Z,18.40
2018-04-17T05:22:56.633Z,19.10
2018-04-17T05:25:24.275Z,19.70
2018-04-17T05:27:52.537Z,20.90
2018-04-17T05:30:21.679Z,20.90
2018-04-17T05:32:49.264Z,21.50
2018-04-17T05:35:16.813Z,22.10
2018-04-17T05:37:44.341Z,22.60
2018-04-17T05:40:12.198Z,23.10
2018-04-17T05:42:40.475Z,23.90
2018-04-17T05:45:08.117Z,23.90
2018-04-17T05:47:35.648Z,24.20
2018-04-17T05:50:03.287Z,24.50
2018-04-17T05:52:30.938Z,24.90
2018-04-17T05:54:58.528Z,25.00
2018-04-17T05:57:26.081Z,25.20
2018-04-17T05:59:53.734Z,25.30
2018-04-17T06:02:21.262Z,25.40
2018-04-17T06:04:49.599Z,25.70
2018-04-17T06:07:17.455Z,25.60
2018-04-17T06:09:45.019Z,25.70
2018-04-17T06:12:13.128Z,25.60
2018-04-17T06:14:42.210Z,25.10
2018-04-17T06:17:10.621Z,25.10
2018-04-17T06:19:38.946Z,25.10
2018-04-17T06:22:06.508Z,24.70
2018-04-17T06:24:34.809Z,24.60
2018-04-17T06:27:03.306Z,25.20
2018-04-17T06:29:31.726Z,25.80
2018-04-17T06:31:59.274Z,25.80
2018-04-17T06:34:27.725Z,26.40
2018-04-17T06:36:56.713Z,27.90
2018-04-17T06:39:24.997Z,28.50
2018-04-17T06:41:52.592Z,28.50
2018-04-17T06:44:20.349Z,29.30
2018-04-17T06:46:47.871Z,29.20
2018-04-17T06:49:15.440Z,29.00
2018-04-17T06:51:43.029Z,28.70
2018-04-17T06:54:10.606Z,29.10
2018-04-17T06:56:38.160Z,29.50
2018-04-17T06:59:06.786Z,29.30
2018-04-17T07:01:34.971Z,29.50
2018-04-17T07:04:02.635Z,29.80
2018-04-17T07:06:30.665Z,30.00
2018-04-17T07:08:58.981Z,30.30
2018-04-17T07:11:26.774Z,30.00
2018-04-17T07:13:54.510Z,29.30
2018-04-17T07:16:22.804Z,29.90
2018-04-17T07:18:50.315Z,29.90
2018-04-17T07:21:17.820Z,30.10
2018-04-17T07:23:46.133Z,29.90
2018-04-17T07:26:14.010Z,29.90
2018-04-17T07:28:41.528Z,29.70
2018-04-17T07:31:09.823Z,29.80
2018-04-17T07:33:37.541Z,29.80
2018-04-17T07:36:05.070Z,29.40
2018-04-17T07:38:32.643Z,28.80
2018-04-17T07:41:01.059Z,28.50
2018-04-17T07:43:30.122Z,28.60
2018-04-17T07:45:57.691Z,28.60
2018-04-17T07:48:37.056Z,29.00
2018-04-17T07:51:06.315Z,27.40
2018-04-17T07:53:33.987Z,27.30
2018-04-17T07:56:03.173Z,27.10
2018-04-17T07:58:31.136Z,27.00
2018-04-17T08:01:00.053Z,27.10
2018-04-17T08:03:28.795Z,27.10
2018-04-17T08:05:56.601Z,26.80
2018-04-17T08:08:24.117Z,26.10
2018-04-17T08:10:52.013Z,26.10
2018-04-17T08:13:19.663Z,25.60
2018-04-17T08:15:47.491Z,24.80
2018-04-17T08:18:17.313Z,24.30
2018-04-17T08:20:45.651Z,24.50
2018-04-17T08:23:13.303Z,24.50
2018-04-17T08:25:40.961Z,24.60
2018-04-17T08:28:08.614Z,24.70
2018-04-17T08:30:36.195Z,24.40
2018-04-17T08:33:03.737Z,24.20
2018-04-17T08:35:31.611Z,24.20
2018-04-17T08:37:59.137Z,24.20
2018-04-17T08:40:27.213Z,24.10
2018-04-17T08:42:54.861Z,23.70
2018-04-17T08:45:24.013Z,23.40
2018-04-17T08:47:51.636Z,22.80
2018-04-17T08:50:19.155Z,22.40
2018-04-17T08:52:47.683Z,22.40
2018-04-17T08:55:15.203Z,22.60
2018-04-17T08:57:42.706Z,22.60
2018-04-17T09:00:10.311Z,22.70
2018-04-17T09:02:38.143Z,22.60
2018-04-17T09:05:05.894Z,22.50
2018-04-17T09:07:33.412Z,22.50
2018-04-17T09:10:01.444Z,22.40
2018-04-17T09:12:28.948Z,22.10
2018-04-17T09:14:57.387Z,21.80
2018-04-17T09:17:24.897Z,21.40
2018-04-17T09:19:53.183Z,21.00
2018-04-17T09:22:21.527Z,21.00
2018-04-17T09:24:49.295Z,20.90
2018-04-17T09:27:17.014Z,20.80
2018-04-17T09:29:44.538Z,20.70
2018-04-17T09:32:12.861Z,20.80
2018-04-17T09:34:40.377Z,20.70
2018-04-17T09:37:07.893Z,20.80
2018-04-17T09:39:36.255Z,20.80
2018-04-17T09:42:03.925Z,20.70
2018-04-17T09:44:31.502Z,20.60
2018-04-17T09:46:59.333Z,20.60
2018-04-17T09:49:26.865Z,20.60
2018-04-17T09:51:54.386Z,20.70
2018-04-17T09:54:22.825Z,20.50
2018-04-17T09:56:50.339Z,20.50
2018-04-17T09:59:17.963Z,20.50
2018-04-17T10:01:45.492Z,20.50
2018-04-17T10:04:14.368Z,20.50
2018-04-17T10:06:42.758Z,20.30
2018-04-17T10:09:11.163Z,20.20
2018-04-17T10:11:38.765Z,20.20
2018-04-17T10:14:06.258Z,20.20
2018-04-17T10:16:34.559Z,20.30
2018-04-17T10:19:02.200Z,20.30
2018-04-17T10:21:30.504Z,20.50
2018-04-17T10:23:58.025Z,20.50
2018-04-17T10:26:26.342Z,20.70
2018-04-17T10:28:53.855Z,20.70
2018-04-17T10:31:22.272Z,20.90
2018-04-17T10:33:49.770Z,20.90
2018-04-17T10:36:17.312Z,21.00
2018-04-17T10:38:44.843Z,21.10
2018-04-17T10:41:12.525Z,21.00
2018-04-17T10:43:40.059Z,20.80
2018-04-17T10:46:07.766Z,20.70
2018-04-17T10:48:35.281Z,20.60
2018-04-17T10:51:02.800Z,20.60
2018-04-17T10:53:30.309Z,20.40
2018-04-17T10:55:58.046Z,20.30
2018-04-17T10:58:26.306Z,20.30
2018-04-17T11:00:54.027Z,20.30
2018-04-17T11:03:21.642Z,20.40
2018-04-17T11:05:49.178Z,20.40
2018-04-17T11:08:16.835Z,20.50
2018-04-17T11:10:44.396Z,20.50
2018-04-17T11:13:12.014Z,20.50
2018-04-17T11:15:39.738Z,20.70
2018-04-17T11:18:07.285Z,20.90
2018-04-17T11:20:34.871Z,21.20
2018-04-17T11:23:03.107Z,21.60
2018-04-17T11:25:30.659Z,21.80
2018-04-17T11:27:59.136Z,21.90
2018-04-17T11:30:26.717Z,21.80
2018-04-17T11:32:54.230Z,21.70
2018-04-17T11:35:22.517Z,21.30
2018-04-17T11:37:50.069Z,21.30
2018-04-17T11:40:17.659Z,21.20
2018-04-17T11:42:46.530Z,21.10
2018-04-17T11:45:14.007Z,21.10
2018-04-17T11:47:41.504Z,21.00
2018-04-17T11:50:09.021Z,21.00
2018-04-17T11:52:36.560Z,21.20
2018-04-17T11:55:04.391Z,21.30
2018-04-17T11:57:34.085Z,21.40
2018-04-17T12:00:01.671Z,21.40
2018-04-17T12:02:29.461Z,21.40
2018-04-17T12:04:57.048Z,21.50
2018-04-17T12:07:24.908Z,21.60
2018-04-17T12:09:52.671Z,21.70
2018-04-17T12:12:20.291Z,21.80
2018-04-17T12:14:48.569Z,22.30
2018-04-17T12:17:16.925Z,22.50
2018-04-17T12:19:44.463Z,22.50
2018-04-17T12:22:12.034Z,22.60
2018-04-17T12:24:39.574Z,22.60
2018-04-17T12:27:07.205Z,22.60
2018-04-17T12:29:36.313Z,22.50
2018-04-17T12:32:03.888Z,22.40
2018-04-17T12:34:31.440Z,22.30
2018-04-17T12:36:59.075Z,22.50
2018-04-17T12:39:26.618Z,22.70
2018-04-17T12:41:54.742Z,22.90
2018-04-17T12:44:22.371Z,23.20
2018-04-17T12:46:49.899Z,23.60
2018-04-17T12:49:17.663Z,23.90
2018-04-17T12:51:45.330Z,23.90
2018-04-17T12:54:12.844Z,23.80
2018-04-17T12:56:40.625Z,23.80
2018-04-17T12:59:08.820Z,23.70
2018-04-17T13:01:36.658Z,23.50
2018-04-17T13:04:04.219Z,23.30
2018-04-17T13:06:31.873Z,23.10
2018-04-17T13:08:59.411Z,22.90
2018-04-17T13:11:27.708Z,22.50
2018-04-17T13:13:55.628Z,22.50
2018-04-17T13:16:23.174Z,22.60
2018-04-17T13:18:50.693Z,22.80
2018-04-17T13:21:18.841Z,23.00
2018-04-17T13:23:47.155Z,23.20
2018-04-17T13:26:14.688Z,23.20
2018-04-17T13:28:42.208Z,23.40
2018-04-17T13:31:09.744Z,23.60
2018-04-17T13:33:37.340Z,23.80
2018-04-17T13:36:05.044Z,23.90
2018-04-17T13:38:32.576Z,24.00
2018-04-17T13:41:00.919Z,24.30
2018-04-17T13:43:28.416Z,24.30
2018-04-17T13:45:56.707Z,24.20
2018-04-17T13:48:24.212Z,24.20
2018-04-17T13:50:52.488Z,23.90
2018-04-17T13:53:20.059Z,23.60
2018-04-17T13:55:47.649Z,23.30
2018-04-17T13:58:15.185Z,23.10
2018-04-17T14:00:42.744Z,22.90
2018-04-17T14:03:10.476Z,22.90
2018-04-17T14:05:37.991Z,22.70
2018-04-17T14:08:05.558Z,22.40
2018-04-17T14:10:33.335Z,22.20
2018-04-17T14:13:00.893Z,22.10
2018-04-17T14:15:29.172Z,21.90
2018-04-17T14:17:58.338Z,21.70
2018-04-17T14:20:26.207Z,21.60
2018-04-17T14:22:53.916Z,21.60
2018-04-17T14:25:21.425Z,21.60
2018-04-17T14:27:49.422Z,21.50
2018-04-17T14:30:17.764Z,21.40
2018-04-17T14:32:46.022Z,21.40
2018-04-17T14:35:13.663Z,21.50
2018-04-17T14:37:41.483Z,21.40
2018-04-17T14:40:09.869Z,21.50
2018-04-17T14:42:37.436Z,21.50
2018-04-17T14:45:05.043Z,21.50
2018-04-17T14:47:32.572Z,21.50
2018-04-17T14:50:00.136Z,21.40
2018-04-17T14:52:27.752Z,21.30
2018-04-17T14:54:55.241Z,21.20
2018-04-17T14:57:22.881Z,21.20
2018-04-17T14:59:50.860Z,21.00
2018-04-17T15:02:18.437Z,20.90
2018-04-17T15:04:46.006Z,20.90
2018-04-17T15:07:13.571Z,20.80
2018-04-17T15:09:41.178Z,20.70
2018-04-17T15:12:08.713Z,20.60
2018-04-17T15:14:36.297Z,20.50
2018-04-17T15:17:04.119Z,20.50
2018-04-17T15:19:31.654Z,20.50
2018-04-17T15:21:59.327Z,20.50
2018-04-17T15:24:27.148Z,20.70
2018-04-17T15:26:54.674Z,20.80
2018-04-17T15:29:22.302Z,21.00
2018-04-17T15:31:50.223Z,21.20
2018-04-17T15:34:18.177Z,21.20
2018-04-17T15:36:45.719Z,21.20
2018-04-17T15:39:13.412Z,21.20
2018-04-17T15:41:40.943Z,21.10
2018-04-17T15:44:09.340Z,20.70
2018-04-17T15:46:36.934Z,20.70
2018-04-17T15:49:04.584Z,20.80
2018-04-17T15:51:32.147Z,20.80
2018-04-17T15:53:59.716Z,20.80
2018-04-17T15:56:27.238Z,20.80
2018-04-17T15:58:54.981Z,20.70
2018-04-17T16:01:23.751Z,20.50
2018-04-17T16:03:51.307Z,20.40
2018-04-17T16:06:19.854Z,20.30
2018-04-17T16:08:47.511Z,20.30
2018-04-17T16:11:15.076Z,20.20
2018-04-17T16:13:42.737Z,20.10
2018-04-17T16:16:10.270Z,20.00
2018-04-17T16:18:37.844Z,19.90
2018-04-17T16:21:05.362Z,19.80
2018-04-17T16:23:33.371Z,19.80
2018-04-17T16:26:00.907Z,19.70
2018-04-17T16:28:28.501Z,19.70
2018-04-17T16:30:56.102Z,19.60
2018-04-17T16:33:23.884Z,19.70
2018-04-17T16:35:51.421Z,19.60
2018-04-17T16:38:19.661Z,19.50
2018-04-17T16:40:47.244Z,19.50
2018-04-17T16:43:14.760Z,19.40
2018-04-17T16:45:42.300Z,19.30
2018-04-17T16:48:10.696Z,19.20
2018-04-17T16:50:38.245Z,19.20
2018-04-17T16:53:06.342Z,19.10
2018-04-17T16:55:34.335Z,19.00
2018-04-17T16:58:01.874Z,19.00
2018-04-17T17:00:29.585Z,18.90
2018-04-17T17:02:57.707Z,18.90
2018-04-17T17:05:25.230Z,18.80
2018-04-17T17:07:52.935Z,18.80
2018-04-17T17:10:21.111Z,18.70
2018-04-17T17:12:48.635Z,18.60
2018-04-17T17:15:16.137Z,18.50
2018-04-17T17:17:43.665Z,18.50
2018-04-17T17:20:11.492Z,18.40
2018-04-17T17:22:39.055Z,18.30
2018-04-17T17:25:07.663Z,18.20
2018-04-17T17:27:36.244Z,18.00
2018-04-17T17:30:03.812Z,18.00
2018-04-17T17:32:31.591Z,18.00
2018-04-17T17:34:59.061Z,17.90
2018-04-17T17:37:26.578Z,17.80
2018-04-17T17:42:28.829Z,17.70
2018-04-17T17:44:56.456Z,17.60
2018-04-17T17:47:24.291Z,17.60
2018-04-17T17:49:51.822Z,17.50
2018-04-17T17:52:19.365Z,17.40
2018-04-17T17:54:46.955Z,17.30
2018-04-17T17:57:14.461Z,17.20
2018-04-17T17:59:42.065Z,17.20
2018-04-17T18:02:09.776Z,17.10
2018-04-17T18:04:37.304Z,17.00
2018-04-17T18:07:04.845Z,16.90
2018-04-17T18:09:32.412Z,16.90
2018-04-17T18:12:00.336Z,16.90
2018-04-17T18:14:28.688Z,16.80
2018-04-17T18:16:56.195Z,16.80
2018-04-17T18:19:23.772Z,16.80
2018-04-17T18:21:51.360Z,16.80
2018-04-17T18:24:19.201Z,16.70
2018-04-17T18:26:47.466Z,16.60
2018-04-17T18:29:16.003Z,16.60
2018-04-17T18:31:43.641Z,16.50
2018-04-17T18:34:11.193Z,16.50
2018-04-17T18:36:38.719Z,16.40
2018-04-17T18:39:06.307Z,16.40
2018-04-17T18:41:34.509Z,16.30
2018-04-17T18:44:02.817Z,16.20
2018-04-17T18:46:30.348Z,16.20
2018-04-17T18:48:57.893Z,16.10
2018-04-17T18:51:25.452Z,16.10
2018-04-17T18:53:53.153Z,16.10
2018-04-17T18:56:21.470Z,16.00
2018-04-17T18:58:49.045Z,15.90
2018-04-17T19:01:16.789Z,15.90
2018-04-17T19:03:44.318Z,15.90
2018-04-17T19:06:12.022Z,15.80
2018-04-17T19:08:39.634Z,15.80
2018-04-17T19:11:07.241Z,15.70
2018-04-17T19:13:35.027Z,15.70
2018-04-17T19:16:02.717Z,15.60
2018-04-17T19:18:31.269Z,15.60
2018-04-17T19:20:58.834Z,15.60
2018-04-17T19:23:26.569Z,15.50
2018-04-17T19:25:54.184Z,15.50
2018-04-17T19:28:22.832Z,15.40
2018-04-17T19:30:50.407Z,15.40
2018-04-17T19:33:17.949Z,15.40
2018-04-17T19:35:45.519Z,15.30
2018-04-17T19:38:13.053Z,15.30
2018-04-17T19:40:40.678Z,15.30
2018-04-17T19:43:08.304Z,15.30
2018-04-17T19:45:35.891Z,15.20
2018-04-17T19:48:03.893Z,15.20
2018-04-17T19:50:31.490Z,15.20
2018-04-17T19:52:59.035Z,15.10
2018-04-17T19:55:26.859Z,15.10
2018-04-17T19:57:54.635Z,15.10
2018-04-17T20:00:22.219Z,15.10
2018-04-17T20:02:49.810Z,15.10
2018-04-17T20:05:18.246Z,15.00
2018-04-17T20:07:45.935Z,15.00
2018-04-17T20:10:13.506Z,15.00
2018-04-17T20:12:41.248Z,14.90
2018-04-17T20:15:08.909Z,14.90
2018-04-17T20:17:36.446Z,14.90
2018-04-17T20:20:03.995Z,14.80
2018-04-17T20:22:32.264Z,14.80
2018-04-17T20:24:59.928Z,14.70
2018-04-17T20:27:28.173Z,14.70
2018-04-17T20:29:55.899Z,14.70
2018-04-17T20:32:23.438Z,14.70
2018-04-17T20:34:51.366Z,14.60
2018-04-17T20:37:18.973Z,14.60
2018-04-17T20:39:46.657Z,14.60
2018-04-17T20:42:15.519Z,14.50
2018-04-17T20:44:43.394Z,14.50
2018-04-17T20:47:11.176Z,14.50
2018-04-17T20:49:38.893Z,14.40
2018-04-17T20:52:06.564Z,14.40
2018-04-17T20:54:34.114Z,14.30
2018-04-17T20:57:01.669Z,14.30
2018-04-17T20:59:29.466Z,14.20
2018-04-17T21:01:57.153Z,14.20
2018-04-17T21:04:24.719Z,14.10
2018-04-17T21:06:53.833Z,14.10
2018-04-17T21:09:21.369Z,14.10
2018-04-17T21:11:48.899Z,14.00
2018-04-17T21:14:16.665Z,14.00
2018-04-17T21:16:44.311Z,14.00
2018-04-17T21:19:12.607Z,13.90
2018-04-17T21:21:40.707Z,13.90
2018-04-17T21:24:08.645Z,13.90
2018-04-17T21:26:36.371Z,13.90
2018-04-17T21:29:03.903Z,13.90
2018-04-17T21:31:31.948Z,13.80
2018-04-17T21:33:59.520Z,13.80
2018-04-17T21:36:27.126Z,13.80
2018-04-17T21:38:54.720Z,13.70
2018-04-17T21:41:22.317Z,13.70
2018-04-17T21:43:49.838Z,13.60
2018-04-17T21:46:17.409Z,13.60
2018-04-17T21:48:45.547Z,13.60
2018-04-17T21:51:13.918Z,13.60
2018-04-17T21:53:41.914Z,13.50
2018-04-17T21:56:10.396Z,13.50
2018-04-17T21:58:38.333Z,13.40
2018-04-17T22:01:05.946Z,13.40
2018-04-17T22:03:33.472Z,13.40
2018-04-17T22:06:01.174Z,13.40
2018-04-17T22:08:28.758Z,13.30
2018-04-17T22:10:56.895Z,13.30
2018-04-17T22:13:25.254Z,13.20
2018-04-17T22:15:52.782Z,13.20
2018-04-17T22:18:20.446Z,13.20
2018-04-17T22:20:48.006Z,13.10
2018-04-17T22:23:16.482Z,13.10
2018-04-17T22:25:44.026Z,13.10
2018-04-17T22:28:11.561Z,13.10
2018-04-17T22:30:39.157Z,13.10
2018-04-17T22:33:06.717Z,13.00
2018-04-17T22:35:34.262Z,13.00
2018-04-17T22:38:01.810Z,13.00
2018-04-17T22:40:29.292Z,13.00
2018-04-17T22:42:56.816Z,12.90
2018-04-17T22:45:25.151Z,12.80
2018-04-17T22:47:52.731Z,12.80
2018-04-17T22:50:20.994Z,12.80
2018-04-17T22:52:48.538Z,12.80
2018-04-17T22:55:16.954Z,12.80
2018-04-17T22:57:45.340Z,12.70
2018-04-17T23:00:13.991Z,12.70
2018-04-17T23:02:42.077Z,12.70
2018-04-17T23:05:09.713Z,12.70
2018-04-17T23:07:37.275Z,12.70
2018-04-17T23:10:04.914Z,12.60
2018-04-17T23:12:32.533Z,12.60
2018-04-17T23:15:00.105Z,12.60
2018-04-17T23:17:27.660Z,12.60
2018-04-17T23:19:55.389Z,12.60
2018-04-17T23:22:23.015Z,12.60
2018-04-17T23:24:50.538Z,12.60
2018-04-17T23:27:18.244Z,12.50
2018-04-17T23:29:46.536Z,12.50
2018-04-17T23:32:14.442Z,12.50
2018-04-17T23:34:41.943Z,12.40
2018-04-17T23:37:09.476Z,12.40
2018-04-17T23:39:37.117Z,12.40
2018-04-17T23:42:04.689Z,12.40
2018-04-17T23:44:32.408Z,12.30
2018-04-17T23:46:59.943Z,12.40
2018-04-17T23:49:27.456Z,12.30
2018-04-17T23:51:55.239Z,12.30
2018-04-17T23:54:23.064Z,12.30
2018-04-17T23:56:50.593Z,12.30
2018-04-17T23:59:18.427Z,12.30
